Nashville, Kansas
Current Conditions -  °F | °C
As of 8:35 PM on Tuesday 25 Nov 2014 (Local Time) from KPTT Reporting Station
Broken Clouds Broken Clouds  
Wind Chill: 34°   Ceiling: 10000
Heat Index: 41°   Visibility: 10mi
Dew Point: 23°   Wind: 13mph
Humidity: 49%   Direction: 170°S
Pressure: 29.96"   Gusts: NA
Location:  37.44°N, 98.42°W
Report Text: KPTT 260235Z AUTO 17011KT 10SM BKN100 05/M05 A2996 RMK AO2
Loading
Personal Weather Stations






























Interactive Weather Map New forecast layout! Learn more

10-Day Weather Forecast

Advertisements
Track Severe Weather on mobile